Cabrerets ULM

FR-0337 · Lot, Occitanie, 法国

使用的TAF站离机场有59 km的距离
2024年2月27日 19:002024年2月28日 04:00有效
时间
星期二
19:00
30%
星期二
20:00
30%
星期二
21:00
30%
星期二
22:00
30%
星期二
23:00
30%
星期三
00:00
30%
星期三
01:00
>40%
星期三
02:00
40%
星期三
03:00
40%
代码
IFR
IFR
IFR
IFR
IFR
IFR
IFR
IFR
IFR
天气
光 雨
天空晴朗
光 雨
天空晴朗
光 雨
天空晴朗
光 雨
天空晴朗
光 雨
天空晴朗
光 雨
天空晴朗
碎云
碎云
碎云
能见度
4 km
4 km
4 km
4 km
4 km
4 km
10 km+
10 km+
10 km+
天花板
800 ft
800 ft
800 ft
800 ft
800 ft
800 ft
800 ft
500 ft
500 ft
340°
340°
340°
340°
340°
340°
340°
340°
340°
340°
340°
340°
340°
340°
340°
340°
340°
340°
速度
10 kt
10 kt
10 kt
10 kt
10 kt
10 kt
10 kt
10 kt
10 kt
阵风
20 kt
20 kt
20 kt
20 kt
20 kt
20 kt
20 kt
20 kt
20 kt
温度/星期日

原版的

TAF LFSL 271700Z 2718/2803 34010KT 9999 OVC015
TEMPO 2718/2803 34010G20KT BKN008
PROB30 TEMPO 2718/2724 4000 -RA
PROB40 TEMPO 2801/2803 BKN005

TAF Cabrerets ULM

Cabrerets ULM是,法国中的小机场。 该机场位于纬度44,51459和经度1,59245。 该机场有一条跑道: 17/35. 这个机场没有ICAO代码,我们使用FR-0337作为参考。 机场在Bordeaux FIR中。

该航空气象观测是针对Brive-Souillac在2024年2月27日 18:00, 当地时间进行的。 从2024年2月27日 19:00到2024年2月28日 04:00, 当地时间有效.

预报

  • 在星期二 19:00和星期三 04:00之间

    • 风: 风来自340°方向,速度为10 kt。
    • 能见度: 10 km 或者更多
    • 乌云: 乌云密布在1.500 ft的高度.
  • 暂时在星期二 19:00和星期三 04:00之间

    • 风: 风来自340°方向,速度为10 kt。 预计20 kt阵风。
    • 乌云: 碎云在800 ft的高度.
  • 暂时在星期二 19:00和星期三 01:00之间 ({一个机会)

    • 能见度: 4 km
    • 天气: 光 雨
  • 暂时在星期三 02:00和04:00之间 ({一个机会)

    • 乌云: 碎云在500 ft的高度.

白天

今天,太阳从07:35升起,在18:37降落。 这适用于Cabrerets ULM,世界夏令时可能有所不同。 当地时间与世界标准时间之间的时差为+1 小时。 当前,没有夏令时有效。